Time;durP1;ratioP1;P1;durP2;ratioP2;P2;SDS_P1;SDS_P2;PMS_P1;PMS_P2;Temp;Humidity;BMP_temperature;BMP_pressure;BME280_temperature;BME280_humidity;BME280_pressure;Samples;Min_cycle;Max_cycle;Signal;HPM_P1;HPM_P2
2021/12/16 00:03:31;;;;;;;4.32;3.85;;;6.10;99.90;;;;;;503076;236;27959;-75
2021/12/16 00:05:36;;;;;;;4.78;4.03;;;6.10;99.90;;;;;;501210;236;27491;-75
2021/12/16 00:07:34;;;;;;;4.35;3.70;;;6.10;99.90;;;;;;501277;236;27945;-75
2021/12/16 00:31:57;;;;;;;5.90;5.22;;;6.10;99.90;;;;;;503090;236;27483;-75
2021/12/16 00:34:04;;;;;;;5.75;4.30;;;6.10;99.90;;;;;;502736;236;27513;-75
2021/12/16 00:36:01;;;;;;;6.10;4.47;;;6.10;99.90;;;;;;502829;236;27426;-75
2021/12/16 00:38:02;;;;;;;7.45;4.43;;;6.10;99.90;;;;;;503067;236;27580;-75
2021/12/16 00:40:03;;;;;;;5.30;4.78;;;6.10;99.90;;;;;;503099;236;27988;-75
2021/12/16 00:42:09;;;;;;;7.50;5.15;;;6.10;99.90;;;;;;503059;236;28846;-75
2021/12/16 00:44:21;;;;;;;7.07;5.28;;;6.10;99.90;;;;;;502750;236;27937;-76
2021/12/16 00:54:05;;;;;;;6.45;5.10;;;6.00;99.90;;;;;;503123;236;27480;-76
2021/12/16 00:54:42;;;;;;;7.70;5.07;;;6.00;99.90;;;;;;503117;236;27908;-75
2021/12/16 00:56:40;;;;;;;5.03;4.50;;;6.00;99.90;;;;;;502854;236;27930;-75
2021/12/16 00:58:49;;;;;;;6.28;4.57;;;6.00;99.90;;;;;;503116;236;27477;-75
2021/12/16 01:00:50;;;;;;;6.82;5.37;;;6.00;99.90;;;;;;502541;236;27424;-75
2021/12/16 01:03:02;;;;;;;5.78;5.12;;;6.00;99.90;;;;;;502478;236;27473;-76
2021/12/16 01:09:42;;;;;;;6.20;4.78;;;6.00;99.90;;;;;;503080;236;29158;-75
2021/12/16 01:34:47;;;;;;;6.12;4.85;;;5.90;99.90;;;;;;503105;236;28030;-76
2021/12/16 01:48:19;;;;;;;9.05;5.95;;;5.90;99.90;;;;;;503104;236;27936;-75
2021/12/16 01:50:06;;;;;;;6.40;5.47;;;5.90;99.90;;;;;;501231;236;27489;-75
2021/12/16 01:58:34;;;;;;;6.43;5.55;;;5.90;99.90;;;;;;503068;236;27522;-75
2021/12/16 02:00:45;;;;;;;7.47;5.60;;;5.90;99.90;;;;;;503073;236;27849;-75
2021/12/16 02:02:45;;;;;;;6.80;5.62;;;5.90;99.90;;;;;;502178;236;27518;-75
2021/12/16 02:05:09;;;;;;;7.62;5.75;;;5.90;99.90;;;;;;502588;236;27443;-75
2021/12/16 02:07:02;;;;;;;7.22;5.78;;;5.90;99.90;;;;;;501211;236;27526;-75
2021/12/16 02:08:46;;;;;;;5.78;5.10;;;5.90;99.90;;;;;;501588;236;27913;-75
2021/12/16 02:10:55;;;;;;;6.93;5.35;;;5.90;99.90;;;;;;503077;236;29001;-75
2021/12/16 02:13:11;;;;;;;9.68;6.15;;;5.90;99.90;;;;;;502410;236;27461;-75
2021/12/16 02:29:14;;;;;;;5.80;4.90;;;5.80;99.90;;;;;;503092;236;27438;-75
2021/12/16 02:31:19;;;;;;;8.00;5.80;;;5.80;99.90;;;;;;501443;236;28013;-75
2021/12/16 02:33:18;;;;;;;7.37;5.72;;;5.80;99.90;;;;;;501246;236;27591;-75
2021/12/16 02:35:28;;;;;;;6.57;5.40;;;5.80;99.90;;;;;;502331;236;27443;-75
2021/12/16 02:37:18;;;;;;;6.80;5.40;;;5.90;99.90;;;;;;501666;236;27461;-75
2021/12/16 02:39:14;;;;;;;7.80;6.30;;;5.90;99.90;;;;;;502687;236;27969;-75
2021/12/16 02:41:15;;;;;;;7.40;5.12;;;5.80;99.90;;;;;;503095;236;27983;-76
2021/12/16 02:49:56;;;;;;;8.60;6.05;;;5.90;99.90;;;;;;503109;236;27485;-75
2021/12/16 02:51:58;;;;;;;9.32;6.40;;;5.80;99.90;;;;;;503103;236;27483;-75
2021/12/16 02:53:59;;;;;;;7.70;5.55;;;5.80;99.90;;;;;;503105;236;27469;-75
2021/12/16 02:56:00;;;;;;;7.37;5.70;;;5.90;99.90;;;;;;503070;236;27863;-76
2021/12/16 02:58:01;;;;;;;9.43;6.32;;;5.90;99.90;;;;;;503090;236;27901;-75
2021/12/16 03:00:03;;;;;;;7.97;6.22;;;5.80;99.90;;;;;;503115;236;28024;-76
2021/12/16 03:02:07;;;;;;;8.52;6.15;;;5.80;99.90;;;;;;503101;236;27449;-75
2021/12/16 03:04:06;;;;;;;8.00;6.07;;;5.80;99.90;;;;;;502894;236;27573;-76
2021/12/16 03:06:07;;;;;;;8.60;6.68;;;5.80;99.90;;;;;;503100;236;27446;-75
2021/12/16 03:08:08;;;;;;;9.45;6.25;;;5.80;99.90;;;;;;503087;236;27491;-76
2021/12/16 03:14:44;;;;;;;8.60;6.15;;;5.80;99.90;;;;;;503101;236;27988;-75
2021/12/16 03:16:47;;;;;;;8.77;6.53;;;5.80;99.90;;;;;;502077;236;27468;-75
2021/12/16 03:20:57;;;;;;;6.97;5.68;;;5.80;99.90;;;;;;503155;236;27439;-75
2021/12/16 03:22:57;;;;;;;7.65;5.93;;;5.90;99.90;;;;;;501947;236;27498;-76
2021/12/16 03:25:08;;;;;;;6.90;5.72;;;5.90;99.90;;;;;;501917;236;27486;-75
2021/12/16 03:29:10;;;;;;;7.10;5.87;;;5.90;99.90;;;;;;503113;236;28034;-75
2021/12/16 03:31:09;;;;;;;6.03;5.20;;;5.90;99.90;;;;;;501659;236;27435;-75
2021/12/16 03:33:19;;;;;;;6.50;5.32;;;5.90;99.90;;;;;;502132;236;27534;-75
2021/12/16 03:35:24;;;;;;;13.82;5.80;;;5.80;99.90;;;;;;501272;236;27476;-75
2021/12/16 03:37:18;;;;;;;6.78;5.45;;;5.80;99.90;;;;;;501268;236;28031;-75
2021/12/16 03:39:18;;;;;;;7.60;5.07;;;5.90;99.90;;;;;;503025;236;27574;-75
2021/12/16 03:41:19;;;;;;;7.93;5.80;;;5.80;99.90;;;;;;503140;236;27979;-75
2021/12/16 03:43:20;;;;;;;7.10;5.65;;;5.80;99.90;;;;;;503118;236;27958;-75
2021/12/16 03:47:41;;;;;;;8.27;6.07;;;5.80;99.90;;;;;;503097;236;28013;-75
2021/12/16 03:49:42;;;;;;;7.50;5.40;;;5.80;99.90;;;;;;503079;236;27952;-76
2021/12/16 03:51:43;;;;;;;7.90;6.65;;;5.80;99.90;;;;;;503100;236;27470;-75
2021/12/16 03:53:45;;;;;;;8.93;6.43;;;5.80;99.90;;;;;;503083;236;27466;-75
2021/12/16 03:55:46;;;;;;;9.57;6.15;;;5.80;99.90;;;;;;503104;236;27434;-75
2021/12/16 03:57:47;;;;;;;7.65;6.00;;;5.90;99.90;;;;;;503071;236;27553;-75
2021/12/16 03:59:48;;;;;;;7.78;5.90;;;5.80;99.90;;;;;;503152;236;27488;-75
2021/12/16 04:01:50;;;;;;;9.30;6.93;;;5.80;99.90;;;;;;503107;236;27439;-75
2021/12/16 04:03:51;;;;;;;9.10;6.57;;;5.80;99.90;;;;;;503062;236;28032;-75
2021/12/16 04:05:52;;;;;;;8.07;6.00;;;5.80;99.90;;;;;;503055;236;27899;-76
2021/12/16 04:07:53;;;;;;;8.73;6.70;;;5.80;99.90;;;;;;503098;236;27908;-76
2021/12/16 04:09:55;;;;;;;7.37;5.70;;;5.80;99.90;;;;;;502899;236;27471;-76
2021/12/16 04:12:08;;;;;;;6.85;5.30;;;5.90;99.90;;;;;;503102;236;27480;-75
2021/12/16 04:13:59;;;;;;;5.85;5.22;;;5.90;99.90;;;;;;502075;236;27564;-75
2021/12/16 04:15:58;;;;;;;7.80;5.10;;;5.90;99.90;;;;;;502971;236;27477;-75
2021/12/16 04:18:00;;;;;;;8.73;5.95;;;5.90;99.90;;;;;;503072;236;27574;-75
2021/12/16 04:20:01;;;;;;;6.00;5.30;;;5.90;99.90;;;;;;503107;236;27572;-75
2021/12/16 04:22:02;;;;;;;8.35;5.53;;;5.80;99.90;;;;;;503062;236;27927;-76
2021/12/16 04:24:04;;;;;;;6.57;5.43;;;5.80;99.90;;;;;;503073;236;27975;-76
2021/12/16 04:26:05;;;;;;;5.78;5.15;;;5.80;99.90;;;;;;503031;236;27451;-75
2021/12/16 04:28:06;;;;;;;7.32;6.00;;;5.80;99.90;;;;;;503051;236;27468;-75
2021/12/16 04:30:07;;;;;;;7.53;5.12;;;5.80;99.90;;;;;;503082;236;27552;-76
2021/12/16 04:32:08;;;;;;;6.68;5.45;;;5.80;99.90;;;;;;503083;236;27478;-75
2021/12/16 04:34:10;;;;;;;7.03;5.35;;;5.80;99.90;;;;;;503087;236;27486;-76
2021/12/16 04:36:11;;;;;;;5.53;4.90;;;5.80;99.90;;;;;;503071;236;27529;-75
2021/12/16 04:38:12;;;;;;;7.95;5.87;;;5.80;99.90;;;;;;503099;236;27510;-75
2021/12/16 04:40:13;;;;;;;8.35;6.03;;;5.80;99.90;;;;;;503091;236;27942;-75
2021/12/16 04:42:15;;;;;;;7.85;5.65;;;5.80;99.90;;;;;;503075;236;27883;-75
2021/12/16 04:44:16;;;;;;;6.35;5.07;;;5.80;99.90;;;;;;503072;236;27474;-75
2021/12/16 04:46:18;;;;;;;6.82;5.37;;;5.80;99.90;;;;;;503085;236;27482;-75
2021/12/16 04:48:19;;;;;;;7.10;6.07;;;5.80;99.90;;;;;;503086;236;27474;-76
2021/12/16 04:50:20;;;;;;;7.55;6.07;;;5.80;99.90;;;;;;503093;236;27498;-76
2021/12/16 04:52:21;;;;;;;8.52;6.10;;;5.80;99.90;;;;;;503073;236;27439;-76
2021/12/16 04:54:23;;;;;;;7.65;6.05;;;5.80;99.90;;;;;;503096;236;27473;-75
2021/12/16 04:56:24;;;;;;;7.80;5.75;;;5.80;99.90;;;;;;503032;236;27479;-75
2021/12/16 04:58:25;;;;;;;8.23;5.85;;;5.80;99.90;;;;;;503091;236;27870;-75
2021/12/16 05:00:26;;;;;;;6.45;5.62;;;5.80;99.90;;;;;;503102;236;28056;-76
2021/12/16 05:02:27;;;;;;;6.80;5.72;;;5.80;99.90;;;;;;503034;236;27462;-76
2021/12/16 05:04:29;;;;;;;7.05;5.78;;;5.80;99.90;;;;;;503087;236;27585;-76
2021/12/16 05:06:30;;;;;;;7.05;5.35;;;5.80;99.90;;;;;;503086;236;27611;-75
2021/12/16 05:08:31;;;;;;;6.97;5.75;;;5.80;99.90;;;;;;503087;236;27447;-76
2021/12/16 05:10:32;;;;;;;8.55;5.50;;;5.80;99.90;;;;;;503065;236;27489;-76
2021/12/16 05:12:36;;;;;;;6.45;5.40;;;5.80;99.90;;;;;;503137;236;27483;-75
2021/12/16 05:14:35;;;;;;;7.85;5.75;;;5.80;99.90;;;;;;502935;236;27472;-75
2021/12/16 05:16:36;;;;;;;8.52;5.80;;;5.80;99.90;;;;;;503127;236;27959;-76
2021/12/16 05:18:38;;;;;;;6.47;5.05;;;5.80;99.90;;;;;;503121;236;27901;-76
2021/12/16 05:20:40;;;;;;;6.37;4.95;;;5.80;99.90;;;;;;503029;236;28046;-75
2021/12/16 05:25:00;;;;;;;5.62;4.57;;;5.80;99.90;;;;;;503104;236;28181;-75
2021/12/16 05:27:01;;;;;;;6.95;4.70;;;5.80;99.90;;;;;;503029;236;27585;-75
2021/12/16 05:29:02;;;;;;;6.78;5.40;;;5.80;99.90;;;;;;503076;236;27508;-75
2021/12/16 05:31:03;;;;;;;6.00;5.00;;;5.80;99.90;;;;;;503044;236;27483;-75
2021/12/16 05:33:05;;;;;;;5.80;4.85;;;5.70;99.90;;;;;;503081;236;27537;-75
2021/12/16 05:35:06;;;;;;;5.93;4.85;;;5.70;99.90;;;;;;503076;236;27467;-76
2021/12/16 05:37:08;;;;;;;5.65;4.30;;;5.70;99.90;;;;;;503063;236;27481;-76
2021/12/16 05:39:09;;;;;;;5.22;4.05;;;5.70;99.90;;;;;;503059;236;27581;-76
2021/12/16 05:41:10;;;;;;;7.47;4.50;;;5.80;99.90;;;;;;503020;236;27925;-75
2021/12/16 05:43:11;;;;;;;5.72;4.40;;;5.70;99.90;;;;;;503064;236;28012;-76
2021/12/16 05:45:12;;;;;;;7.60;5.40;;;5.70;99.90;;;;;;503080;236;27513;-75
2021/12/16 05:47:13;;;;;;;6.00;5.07;;;5.70;99.90;;;;;;503046;236;27603;-76
2021/12/16 05:49:15;;;;;;;6.20;4.70;;;5.70;99.90;;;;;;503077;236;27450;-75
2021/12/16 05:51:16;;;;;;;6.03;4.80;;;5.80;99.90;;;;;;503062;236;27485;-76
2021/12/16 05:53:17;;;;;;;5.85;4.70;;;5.80;99.90;;;;;;503065;236;27505;-75
2021/12/16 05:55:18;;;;;;;6.30;4.70;;;5.70;99.90;;;;;;503027;236;27498;-75
2021/12/16 05:57:20;;;;;;;7.10;5.12;;;5.80;99.90;;;;;;502992;236;27509;-75
2021/12/16 05:59:21;;;;;;;5.53;4.90;;;5.80;99.90;;;;;;502982;236;27977;-75
2021/12/16 06:01:22;;;;;;;6.18;4.82;;;5.80;99.90;;;;;;503015;236;27909;-75
2021/12/16 06:03:23;;;;;;;6.43;4.62;;;5.80;99.90;;;;;;503040;236;27569;-75
2021/12/16 06:05:25;;;;;;;6.85;5.22;;;5.80;99.90;;;;;;503008;236;27453;-75
2021/12/16 06:07:26;;;;;;;6.68;5.25;;;5.80;99.90;;;;;;503014;236;27508;-75
2021/12/16 06:09:27;;;;;;;8.65;6.25;;;5.80;99.90;;;;;;503018;236;27422;-75
2021/12/16 06:11:30;;;;;;;6.37;5.30;;;5.70;99.90;;;;;;503034;236;27576;-75
2021/12/16 06:13:34;;;;;;;6.45;5.35;;;5.70;99.90;;;;;;502983;236;27573;-76
2021/12/16 06:23:09;;;;;;;6.10;4.90;;;5.80;99.90;;;;;;503065;236;27571;-76
2021/12/16 06:27:09;;;;;;;6.75;5.00;;;5.70;99.90;;;;;;503000;236;27525;-75
2021/12/16 06:29:04;;;;;;;7.70;5.50;;;5.70;99.90;;;;;;502527;236;27982;-75
2021/12/16 06:31:05;;;;;;;6.37;5.40;;;5.70;99.90;;;;;;503055;236;27910;-75
2021/12/16 06:33:07;;;;;;;5.95;5.12;;;5.80;99.90;;;;;;503082;236;27588;-75
2021/12/16 06:35:08;;;;;;;7.85;5.30;;;5.80;99.90;;;;;;503075;236;27477;-75
2021/12/16 06:37:09;;;;;;;8.55;5.35;;;5.70;99.90;;;;;;503093;236;27596;-76
2021/12/16 06:39:10;;;;;;;5.78;4.93;;;5.80;99.90;;;;;;503071;236;27485;-75
2021/12/16 06:41:12;;;;;;;7.82;5.10;;;5.80;99.90;;;;;;503092;236;27571;-75
2021/12/16 06:43:15;;;;;;;6.18;4.65;;;5.70;99.90;;;;;;503087;236;27485;-76
2021/12/16 06:45:25;;;;;;;6.07;5.30;;;5.70;99.90;;;;;;494255;236;28068;-76
2021/12/16 06:47:29;;;;;;;5.62;4.82;;;5.70;99.90;;;;;;489478;243;27963;-75
2021/12/16 06:49:23;;;;;;;5.12;4.45;;;5.70;99.90;;;;;;489342;243;27979;-76
2021/12/16 06:51:36;;;;;;;7.55;5.10;;;5.70;99.90;;;;;;489880;243;27474;-76
2021/12/16 06:53:30;;;;;;;8.30;5.87;;;5.70;99.90;;;;;;489029;243;27517;-75
2021/12/16 06:55:43;;;;;;;7.53;4.75;;;5.70;99.90;;;;;;489611;243;27576;-75
2021/12/16 06:57:44;;;;;;;6.50;4.65;;;5.70;99.90;;;;;;489423;243;27587;-75
2021/12/16 06:59:51;;;;;;;5.60;5.00;;;5.70;99.90;;;;;;489600;243;27924;-75
2021/12/16 07:01:49;;;;;;;7.22;5.70;;;5.70;99.90;;;;;;489088;243;28149;-75
2021/12/16 07:03:49;;;;;;;7.68;5.55;;;5.70;99.90;;;;;;489403;243;27532;-75
2021/12/16 07:05:52;;;;;;;6.12;5.45;;;5.70;99.90;;;;;;489933;243;28035;-75
2021/12/16 07:07:51;;;;;;;7.78;5.40;;;5.70;99.90;;;;;;489765;243;27983;-75
2021/12/16 07:09:53;;;;;;;6.80;5.22;;;5.70;99.90;;;;;;489926;243;27492;-75
2021/12/16 07:11:56;;;;;;;6.00;5.20;;;5.70;99.90;;;;;;489878;243;27586;-75
2021/12/16 07:13:58;;;;;;;6.07;5.10;;;5.70;99.90;;;;;;489753;243;27540;-77
2021/12/16 07:15:56;;;;;;;6.95;5.25;;;5.70;99.90;;;;;;489806;243;27515;-75
2021/12/16 07:17:58;;;;;;;7.28;5.60;;;5.70;99.90;;;;;;489907;243;27508;-75
2021/12/16 07:19:59;;;;;;;8.90;6.65;;;5.70;99.90;;;;;;489932;243;27548;-75
2021/12/16 07:22:00;;;;;;;10.32;5.40;;;5.70;99.90;;;;;;489884;243;28028;-74
2021/12/16 07:24:01;;;;;;;9.55;5.78;;;5.70;99.90;;;;;;489937;243;27996;-75
2021/12/16 07:26:03;;;;;;;6.55;5.03;;;5.70;99.90;;;;;;489917;243;27499;-79
2021/12/16 07:28:07;;;;;;;7.80;5.60;;;5.70;99.90;;;;;;489873;243;27516;-76
2021/12/16 07:30:05;;;;;;;5.60;4.97;;;5.70;99.90;;;;;;489717;243;27452;-75
2021/12/16 07:32:07;;;;;;;6.35;4.82;;;5.70;99.90;;;;;;489913;243;27478;-75
2021/12/16 07:34:08;;;;;;;7.15;5.62;;;5.70;99.90;;;;;;489957;243;27619;-75
2021/12/16 07:36:09;;;;;;;5.95;4.55;;;5.70;99.90;;;;;;489885;243;27539;-75
2021/12/16 07:38:10;;;;;;;5.87;4.72;;;5.70;99.90;;;;;;489872;243;27560;-75
2021/12/16 07:40:12;;;;;;;6.15;4.87;;;5.80;99.90;;;;;;489876;243;28372;-75
2021/12/16 07:42:14;;;;;;;6.50;4.70;;;5.80;99.90;;;;;;489899;243;28081;-76
2021/12/16 07:44:14;;;;;;;6.12;4.60;;;5.80;99.90;;;;;;489806;243;27508;-75
2021/12/16 07:46:15;;;;;;;6.43;4.78;;;5.80;99.90;;;;;;489897;243;27481;-76
2021/12/16 07:48:17;;;;;;;6.80;5.25;;;5.80;99.90;;;;;;489878;243;27516;-75
2021/12/16 07:50:18;;;;;;;8.40;5.47;;;5.80;99.90;;;;;;489939;243;27873;-76
2021/12/16 07:52:20;;;;;;;6.93;5.18;;;5.80;99.90;;;;;;489905;243;27563;-76
2021/12/16 07:54:20;;;;;;;6.15;5.20;;;5.80;99.90;;;;;;489917;243;27508;-75
2021/12/16 07:56:22;;;;;;;5.97;4.82;;;5.80;99.90;;;;;;489924;243;27905;-75
2021/12/16 07:58:23;;;;;;;5.82;5.03;;;5.70;99.90;;;;;;489884;243;28021;-75
2021/12/16 08:00:24;;;;;;;6.35;5.20;;;5.80;99.90;;;;;;489928;243;28126;-75
2021/12/16 08:02:25;;;;;;;6.53;4.90;;;5.80;99.90;;;;;;489914;243;27494;-75
2021/12/16 08:04:31;;;;;;;6.55;5.00;;;5.80;99.90;;;;;;489911;243;27515;-75
2021/12/16 08:06:31;;;;;;;6.75;5.35;;;5.80;99.90;;;;;;489869;243;27608;-75
2021/12/16 08:08:32;;;;;;;7.97;4.70;;;5.80;99.90;;;;;;489892;243;27498;-76
2021/12/16 08:10:33;;;;;;;5.32;4.60;;;5.90;99.90;;;;;;489906;243;27532;-75
2021/12/16 08:12:34;;;;;;;6.28;4.62;;;5.80;99.90;;;;;;489875;243;28743;-75
2021/12/16 08:14:36;;;;;;;6.53;4.65;;;5.80;99.90;;;;;;489928;243;27938;-76
2021/12/16 08:16:37;;;;;;;6.47;4.80;;;5.80;99.90;;;;;;489913;243;27620;-76
2021/12/16 08:18:38;;;;;;;5.28;4.30;;;5.90;99.90;;;;;;489909;243;27475;-76
2021/12/16 08:20:39;;;;;;;5.53;4.60;;;5.90;99.90;;;;;;489926;243;27513;-75
2021/12/16 08:22:41;;;;;;;5.35;4.60;;;5.90;99.90;;;;;;489884;243;27481;-75
2021/12/16 08:24:42;;;;;;;5.12;4.22;;;5.90;99.90;;;;;;489920;243;27493;-76
2021/12/16 08:26:43;;;;;;;5.60;4.53;;;5.90;99.90;;;;;;489925;243;27535;-75
2021/12/16 08:28:44;;;;;;;5.47;4.60;;;5.90;99.90;;;;;;489909;243;27492;-75
2021/12/16 08:30:46;;;;;;;5.00;4.50;;;5.90;99.90;;;;;;489959;243;28071;-76
2021/12/16 08:32:47;;;;;;;4.40;4.00;;;5.90;99.90;;;;;;489969;243;28071;-76
2021/12/16 08:34:48;;;;;;;5.70;3.90;;;5.90;99.90;;;;;;489940;243;27491;-75
2021/12/16 08:36:49;;;;;;;4.30;3.90;;;5.90;99.90;;;;;;489942;243;27583;-75
2021/12/16 08:38:51;;;;;;;6.28;3.72;;;5.90;99.90;;;;;;489927;243;27621;-75
2021/12/16 08:40:52;;;;;;;5.55;4.60;;;5.90;99.90;;;;;;489964;243;27524;-76
2021/12/16 08:42:53;;;;;;;5.32;4.25;;;6.00;99.90;;;;;;489906;243;27520;-75
2021/12/16 08:44:54;;;;;;;4.50;4.10;;;6.00;99.90;;;;;;489912;243;28849;-76
2021/12/16 08:46:56;;;;;;;5.07;4.53;;;6.00;99.90;;;;;;489919;243;28082;-76
2021/12/16 08:48:57;;;;;;;3.87;3.53;;;6.00;99.90;;;;;;489897;243;28097;-76
2021/12/16 08:50:58;;;;;;;5.20;4.40;;;6.00;99.90;;;;;;489922;243;27500;-75
2021/12/16 08:53:00;;;;;;;5.05;4.12;;;6.10;99.90;;;;;;489938;243;27509;-75
2021/12/16 08:55:01;;;;;;;4.95;3.97;;;6.10;99.90;;;;;;489925;243;27468;-76
2021/12/16 08:57:02;;;;;;;4.43;3.92;;;6.20;99.90;;;;;;489932;243;27517;-75
2021/12/16 08:59:03;;;;;;;5.87;4.40;;;6.20;99.90;;;;;;489921;243;27528;-75
2021/12/16 09:01:04;;;;;;;4.70;3.95;;;6.20;99.90;;;;;;489892;243;27985;-75
2021/12/16 09:03:06;;;;;;;5.28;4.03;;;6.30;99.90;;;;;;489930;243;28030;-75
2021/12/16 09:05:07;;;;;;;4.65;4.15;;;6.30;99.90;;;;;;489913;243;27488;-75
2021/12/16 09:07:08;;;;;;;4.20;3.70;;;6.30;99.90;;;;;;489919;243;27501;-75
2021/12/16 09:09:09;;;;;;;4.05;3.65;;;6.40;99.90;;;;;;489909;243;27500;-76
2021/12/16 09:11:13;;;;;;;5.30;4.07;;;6.40;99.90;;;;;;489888;243;27519;-75
2021/12/16 09:13:14;;;;;;;5.30;4.72;;;6.40;99.90;;;;;;489800;243;27501;-75
2021/12/16 09:15:13;;;;;;;6.68;4.57;;;6.50;99.90;;;;;;489814;243;27980;-75
2021/12/16 09:17:15;;;;;;;5.22;4.22;;;6.50;99.90;;;;;;489891;243;27974;-76
2021/12/16 09:19:16;;;;;;;5.90;4.62;;;6.60;99.90;;;;;;489851;243;27465;-75
2021/12/16 09:21:17;;;;;;;6.03;4.50;;;6.60;99.90;;;;;;489890;243;27511;-76
2021/12/16 09:23:18;;;;;;;5.37;4.70;;;6.50;99.90;;;;;;489930;243;27516;-76
2021/12/16 09:25:20;;;;;;;5.62;4.40;;;6.50;99.90;;;;;;489886;243;27570;-76
2021/12/16 09:27:21;;;;;;;4.40;4.00;;;6.50;99.90;;;;;;489897;243;27528;-76
2021/12/16 09:29:22;;;;;;;5.68;4.70;;;6.60;99.90;;;;;;489934;243;28075;-76
2021/12/16 09:31:23;;;;;;;5.28;4.15;;;6.60;99.90;;;;;;489915;243;27994;-75
2021/12/16 09:33:26;;;;;;;6.10;4.37;;;6.60;99.90;;;;;;489938;243;27598;-76
2021/12/16 09:35:26;;;;;;;5.87;4.87;;;6.60;99.90;;;;;;489824;243;28814;-76
2021/12/16 09:37:28;;;;;;;5.75;5.10;;;6.70;99.90;;;;;;489891;243;27625;-76
2021/12/16 09:39:28;;;;;;;6.30;5.07;;;6.80;99.90;;;;;;489906;243;27847;-76
2021/12/16 09:41:30;;;;;;;6.35;5.25;;;6.80;99.90;;;;;;489887;243;28361;-76
2021/12/16 09:43:31;;;;;;;5.77;4.93;;;6.90;99.90;;;;;;489920;243;27515;-75
2021/12/16 09:45:32;;;;;;;6.70;5.60;;;6.90;99.90;;;;;;489896;243;27877;-76
2021/12/16 09:47:33;;;;;;;7.60;5.78;;;7.00;99.90;;;;;;489875;243;29142;-75
2021/12/16 09:49:35;;;;;;;9.40;5.83;;;7.00;99.90;;;;;;489940;243;28022;-76
2021/12/16 09:51:36;;;;;;;7.60;5.90;;;7.10;99.90;;;;;;489908;243;28847;-76
2021/12/16 09:53:37;;;;;;;5.33;4.73;;;7.00;99.90;;;;;;489919;243;28852;-76
2021/12/16 09:55:39;;;;;;;5.77;5.17;;;7.00;99.90;;;;;;489910;243;28498;-75
2021/12/16 09:57:40;;;;;;;7.15;5.50;;;7.00;99.90;;;;;;489942;243;28422;-76
2021/12/16 09:59:41;;;;;;;7.40;5.50;;;7.10;99.90;;;;;;489930;243;27503;-76
2021/12/16 10:01:42;;;;;;;7.70;5.50;;;7.10;99.90;;;;;;489899;243;28292;-75
2021/12/16 10:03:43;;;;;;;6.40;5.40;;;7.20;99.90;;;;;;489923;243;28192;-75
2021/12/16 10:05:45;;;;;;;7.30;5.30;;;7.20;99.90;;;;;;489918;243;27941;-76
2021/12/16 10:07:46;;;;;;;7.40;5.60;;;7.20;99.90;;;;;;489901;243;27940;-76
2021/12/16 10:09:47;;;;;;;5.60;4.70;;;7.20;99.90;;;;;;489922;243;27831;-76
2021/12/16 10:11:48;;;;;;;6.20;4.73;;;7.30;99.90;;;;;;489730;243;28352;-76
2021/12/16 10:18:04;;;;;;;7.90;5.90;;;7.40;99.90;;;;;;489919;243;28010;-75
2021/12/16 10:20:05;;;;;;;8.67;6.33;;;7.50;99.90;;;;;;489941;243;27622;-76
2021/12/16 10:22:06;;;;;;;6.83;5.80;;;7.50;99.90;;;;;;489921;243;27911;-75
2021/12/16 10:24:08;;;;;;;6.43;5.73;;;7.50;99.90;;;;;;489922;243;27692;-76
2021/12/16 10:26:09;;;;;;;7.63;6.00;;;7.50;99.90;;;;;;489927;243;27779;-76
2021/12/16 10:28:10;;;;;;;6.80;5.80;;;7.50;99.90;;;;;;489931;243;28008;-76
2021/12/16 10:30:11;;;;;;;6.60;5.50;;;7.50;99.90;;;;;;489931;243;28874;-76
2021/12/16 10:32:13;;;;;;;7.83;5.67;;;7.60;99.90;;;;;;489949;242;27927;-77
2021/12/16 10:34:14;;;;;;;7.23;5.93;;;7.60;99.90;;;;;;489941;243;28582;-76
2021/12/16 10:36:15;;;;;;;6.13;5.30;;;7.70;99.90;;;;;;489931;243;28387;-76
2021/12/16 10:38:16;;;;;;;5.30;4.70;;;7.70;99.90;;;;;;489902;243;29408;-76
2021/12/16 10:40:18;;;;;;;7.83;6.20;;;7.80;99.90;;;;;;489940;243;28595;-76
2021/12/16 10:42:19;;;;;;;5.67;5.07;;;7.80;99.90;;;;;;489946;243;28114;-76
2021/12/16 10:44:20;;;;;;;6.10;5.33;;;7.90;99.90;;;;;;489933;243;27969;-76
2021/12/16 10:46:21;;;;;;;6.97;5.53;;;8.00;99.90;;;;;;489920;243;27952;-76
2021/12/16 10:48:23;;;;;;;8.13;6.50;;;8.10;99.90;;;;;;489882;243;28090;-76
2021/12/16 10:50:24;;;;;;;9.17;6.63;;;8.10;99.90;;;;;;489931;243;27540;-76
2021/12/16 10:52:27;;;;;;;9.60;7.00;;;8.00;99.90;;;;;;489961;243;28033;-76
2021/12/16 10:54:26;;;;;;;8.40;6.13;;;8.10;99.90;;;;;;489810;243;27872;-76
2021/12/16 10:56:28;;;;;;;11.43;6.07;;;8.10;99.90;;;;;;489932;243;27767;-76
2021/12/16 10:58:29;;;;;;;10.07;7.10;;;8.10;99.90;;;;;;489920;243;27893;-76
2021/12/16 11:00:30;;;;;;;11.30;6.70;;;8.10;99.90;;;;;;489920;243;28004;-76
2021/12/16 11:02:32;;;;;;;8.10;5.80;;;8.10;99.90;;;;;;489962;243;28119;-76
2021/12/16 11:04:33;;;;;;;7.80;6.47;;;8.10;99.90;;;;;;489916;243;28036;-77
2021/12/16 11:06:34;;;;;;;8.37;6.27;;;8.00;99.90;;;;;;489933;243;28346;-76
2021/12/16 11:08:35;;;;;;;9.17;5.97;;;8.10;99.90;;;;;;489919;243;28441;-76
2021/12/16 11:10:38;;;;;;;9.87;6.90;;;8.20;99.90;;;;;;489892;243;29157;-76
2021/12/16 11:12:38;;;;;;;7.40;5.67;;;8.20;99.90;;;;;;489827;243;28387;-76
2021/12/16 11:14:39;;;;;;;9.13;6.30;;;8.10;99.90;;;;;;489930;243;28491;-76
2021/12/16 11:16:40;;;;;;;9.53;6.50;;;8.20;99.90;;;;;;489948;243;27585;-76
2021/12/16 11:18:41;;;;;;;10.63;6.57;;;8.20;99.90;;;;;;489944;243;27877;-75
2021/12/16 11:20:43;;;;;;;8.60;5.87;;;8.20;99.90;;;;;;489938;243;28053;-76
2021/12/16 11:22:44;;;;;;;8.17;5.27;;;8.20;99.90;;;;;;489941;243;28078;-75
2021/12/16 11:24:45;;;;;;;7.40;5.80;;;8.20;99.90;;;;;;489949;243;27544;-76
2021/12/16 11:26:47;;;;;;;6.47;5.53;;;8.20;99.90;;;;;;489942;243;28101;-76
2021/12/16 11:28:48;;;;;;;7.20;5.73;;;8.30;99.90;;;;;;489933;243;27742;-76
2021/12/16 11:30:49;;;;;;;9.50;6.10;;;8.30;99.90;;;;;;489918;243;27984;-75
2021/12/16 11:32:50;;;;;;;8.03;5.30;;;8.30;99.90;;;;;;489955;243;27946;-76
2021/12/16 11:34:51;;;;;;;8.77;5.20;;;8.40;99.90;;;;;;489998;243;27738;-76
2021/12/16 11:36:54;;;;;;;6.10;5.50;;;8.50;99.90;;;;;;489931;243;27960;-76
2021/12/16 11:38:54;;;;;;;7.10;5.50;;;8.50;99.90;;;;;;489868;243;27881;-76
2021/12/16 11:40:55;;;;;;;6.50;5.30;;;8.60;99.90;;;;;;489901;243;28037;-76
2021/12/16 11:42:56;;;;;;;7.23;5.37;;;8.60;99.90;;;;;;489919;243;27578;-76
2021/12/16 11:44:58;;;;;;;6.70;5.20;;;8.70;99.90;;;;;;489936;243;28514;-76
2021/12/16 11:47:00;;;;;;;6.80;5.03;;;8.60;99.90;;;;;;489932;243;28431;-76
2021/12/16 11:49:00;;;;;;;9.23;5.53;;;8.50;99.90;;;;;;489857;243;28422;-76
2021/12/16 11:51:01;;;;;;;7.17;5.67;;;8.50;99.90;;;;;;489943;243;28427;-76
2021/12/16 11:53:03;;;;;;;6.80;5.70;;;8.50;99.90;;;;;;489935;243;28525;-77
2021/12/16 11:55:04;;;;;;;7.63;6.00;;;8.40;99.90;;;;;;489968;243;27521;-76
2021/12/16 11:57:05;;;;;;;8.10;6.17;;;8.40;99.90;;;;;;489947;243;27952;-76
2021/12/16 11:59:06;;;;;;;10.00;5.80;;;8.30;99.90;;;;;;489981;243;27984;-77
2021/12/16 12:01:08;;;;;;;6.10;5.00;;;8.40;99.90;;;;;;489943;243;27829;-76
2021/12/16 12:03:09;;;;;;;6.60;5.33;;;8.40;99.90;;;;;;489941;243;28071;-76
2021/12/16 12:05:10;;;;;;;8.23;4.97;;;8.40;99.90;;;;;;489955;243;28117;-76
2021/12/16 12:07:11;;;;;;;5.13;4.40;;;8.40;99.90;;;;;;489914;243;28048;-76
2021/12/16 12:09:13;;;;;;;5.47;4.60;;;8.40;99.90;;;;;;489939;243;27823;-76
2021/12/16 12:11:16;;;;;;;6.30;4.10;;;8.50;99.90;;;;;;489946;243;28338;-76
2021/12/16 12:13:15;;;;;;;5.13;4.57;;;8.50;99.90;;;;;;489806;243;28041;-76
2021/12/16 12:15:16;;;;;;;4.17;3.77;;;8.40;99.90;;;;;;489956;243;27508;-76
2021/12/16 12:17:20;;;;;;;6.30;4.90;;;8.40;99.90;;;;;;489945;243;27933;-76
2021/12/16 12:19:19;;;;;;;5.00;3.90;;;8.50;99.90;;;;;;489807;243;28105;-76
2021/12/16 12:21:20;;;;;;;4.93;4.30;;;8.50;99.90;;;;;;489920;243;28534;-76
2021/12/16 12:23:21;;;;;;;5.10;4.10;;;8.50;99.90;;;;;;489901;243;28543;-76
2021/12/16 12:25:23;;;;;;;6.67;3.93;;;8.50;99.90;;;;;;489925;243;29171;-76
2021/12/16 12:27:25;;;;;;;5.43;3.93;;;8.60;99.90;;;;;;489913;243;28375;-76
2021/12/16 12:29:28;;;;;;;4.57;4.10;;;8.50;99.90;;;;;;489902;243;28563;-76
2021/12/16 12:31:26;;;;;;;5.50;4.23;;;8.60;99.90;;;;;;489807;243;28564;-76
2021/12/16 12:33:28;;;;;;;4.50;3.90;;;8.60;99.90;;;;;;489916;243;28069;-76
2021/12/16 12:35:29;;;;;;;5.03;4.20;;;8.70;99.90;;;;;;489923;243;27477;-76
2021/12/16 12:37:31;;;;;;;5.60;4.40;;;8.70;99.90;;;;;;489930;243;27732;-76
2021/12/16 12:39:33;;;;;;;6.87;4.50;;;8.60;99.90;;;;;;489907;243;27855;-76
2021/12/16 12:41:33;;;;;;;6.20;4.57;;;8.50;99.90;;;;;;489889;243;27933;-76
2021/12/16 12:43:34;;;;;;;5.53;4.63;;;8.40;99.90;;;;;;489903;242;28040;-76
2021/12/16 12:45:35;;;;;;;5.07;4.47;;;8.40;99.90;;;;;;489897;243;28011;-76